sensor_id;sensor_type;location;lat;lon;timestamp;temperature;humidity
12885;DHT22;6510;51.362;7.370;2023-06-22T00:01:58;21.40;99.90
12885;DHT22;6510;51.362;7.370;2023-06-22T00:04:24;21.40;99.90
12885;DHT22;6510;51.362;7.370;2023-06-22T00:06:50;21.40;99.90
12885;DHT22;6510;51.362;7.370;2023-06-22T00:09:16;21.30;99.90
12885;DHT22;6510;51.362;7.370;2023-06-22T00:11:42;21.30;99.90
12885;DHT22;6510;51.362;7.370;2023-06-22T00:14:07;21.20;99.90
12885;DHT22;6510;51.362;7.370;2023-06-22T00:16:33;21.20;99.90
12885;DHT22;6510;51.362;7.370;2023-06-22T00:19:00;21.20;99.90
12885;DHT22;6510;51.362;7.370;2023-06-22T00:21:27;21.20;99.90
12885;DHT22;6510;51.362;7.370;2023-06-22T00:23:52;21.20;99.90
12885;DHT22;6510;51.362;7.370;2023-06-22T00:26:18;21.10;99.90
12885;DHT22;6510;51.362;7.370;2023-06-22T00:28:44;21.10;99.90
12885;DHT22;6510;51.362;7.370;2023-06-22T00:31:10;21.10;99.90
12885;DHT22;6510;51.362;7.370;2023-06-22T00:33:35;21.10;99.90
12885;DHT22;6510;51.362;7.370;2023-06-22T00:36:01;21.10;99.90
12885;DHT22;6510;51.362;7.370;2023-06-22T00:38:28;21.10;99.90
12885;DHT22;6510;51.362;7.370;2023-06-22T00:40:54;21.10;99.90
12885;DHT22;6510;51.362;7.370;2023-06-22T00:43:19;21.10;99.90
12885;DHT22;6510;51.362;7.370;2023-06-22T00:45:45;21.00;99.90
12885;DHT22;6510;51.362;7.370;2023-06-22T00:48:12;20.90;99.90
12885;DHT22;6510;51.362;7.370;2023-06-22T00:50:38;20.90;99.90
12885;DHT22;6510;51.362;7.370;2023-06-22T00:53:06;20.90;99.90
12885;DHT22;6510;51.362;7.370;2023-06-22T00:55:42;20.90;99.90
12885;DHT22;6510;51.362;7.370;2023-06-22T00:58:09;20.90;99.90
12885;DHT22;6510;51.362;7.370;2023-06-22T01:00:36;20.90;99.90
12885;DHT22;6510;51.362;7.370;2023-06-22T01:03:03;20.80;99.90
12885;DHT22;6510;51.362;7.370;2023-06-22T01:05:29;20.90;99.90
12885;DHT22;6510;51.362;7.370;2023-06-22T01:12:01;20.90;99.90
12885;DHT22;6510;51.362;7.370;2023-06-22T01:14:00;20.90;99.90
12885;DHT22;6510;51.362;7.370;2023-06-22T01:16:30;20.90;99.90
12885;DHT22;6510;51.362;7.370;2023-06-22T01:19:00;20.90;99.90
12885;DHT22;6510;51.362;7.370;2023-06-22T01:21:29;20.90;99.90
12885;DHT22;6510;51.362;7.370;2023-06-22T01:29:36;20.70;99.90
12885;DHT22;6510;51.362;7.370;2023-06-22T01:32:03;20.70;99.90
12885;DHT22;6510;51.362;7.370;2023-06-22T01:34:31;20.70;99.90
12885;DHT22;6510;51.362;7.370;2023-06-22T01:36:58;20.70;99.90
12885;DHT22;6510;51.362;7.370;2023-06-22T01:39:25;20.70;99.90
12885;DHT22;6510;51.362;7.370;2023-06-22T01:41:52;20.70;99.90
12885;DHT22;6510;51.362;7.370;2023-06-22T01:44:19;20.60;99.90
12885;DHT22;6510;51.362;7.370;2023-06-22T01:46:45;20.60;99.90
12885;DHT22;6510;51.362;7.370;2023-06-22T01:49:11;20.60;99.90
12885;DHT22;6510;51.362;7.370;2023-06-22T01:51:37;20.60;99.90
12885;DHT22;6510;51.362;7.370;2023-06-22T01:54:05;20.50;99.90
12885;DHT22;6510;51.362;7.370;2023-06-22T01:56:30;20.50;99.90
12885;DHT22;6510;51.362;7.370;2023-06-22T01:59:25;20.50;99.90
12885;DHT22;6510;51.362;7.370;2023-06-22T02:02:00;20.50;99.90
12885;DHT22;6510;51.362;7.370;2023-06-22T02:04:30;20.50;99.90
12885;DHT22;6510;51.362;7.370;2023-06-22T02:06:59;20.50;99.90
12885;DHT22;6510;51.362;7.370;2023-06-22T02:09:29;20.50;99.90
12885;DHT22;6510;51.362;7.370;2023-06-22T02:11:56;20.40;99.90
12885;DHT22;6510;51.362;7.370;2023-06-22T02:14:23;20.40;99.90
12885;DHT22;6510;51.362;7.370;2023-06-22T02:16:50;20.30;99.90
12885;DHT22;6510;51.362;7.370;2023-06-22T02:19:16;20.30;99.90
12885;DHT22;6510;51.362;7.370;2023-06-22T02:21:44;20.30;99.90
12885;DHT22;6510;51.362;7.370;2023-06-22T02:24:10;20.30;99.90
12885;DHT22;6510;51.362;7.370;2023-06-22T02:26:36;20.30;99.90
12885;DHT22;6510;51.362;7.370;2023-06-22T02:29:03;20.20;99.90
12885;DHT22;6510;51.362;7.370;2023-06-22T02:31:29;20.20;99.90
12885;DHT22;6510;51.362;7.370;2023-06-22T02:33:58;20.20;99.90
12885;DHT22;6510;51.362;7.370;2023-06-22T02:36:24;20.20;99.90
12885;DHT22;6510;51.362;7.370;2023-06-22T02:38:50;20.10;99.90
12885;DHT22;6510;51.362;7.370;2023-06-22T02:41:16;20.10;99.90
12885;DHT22;6510;51.362;7.370;2023-06-22T02:43:45;20.10;99.90
12885;DHT22;6510;51.362;7.370;2023-06-22T02:46:12;20.00;99.90
12885;DHT22;6510;51.362;7.370;2023-06-22T02:48:39;20.00;99.90
12885;DHT22;6510;51.362;7.370;2023-06-22T02:51:04;19.90;99.90
12885;DHT22;6510;51.362;7.370;2023-06-22T02:53:30;19.90;99.90
12885;DHT22;6510;51.362;7.370;2023-06-22T02:55:59;19.80;99.90
12885;DHT22;6510;51.362;7.370;2023-06-22T02:58:26;19.80;99.90
12885;DHT22;6510;51.362;7.370;2023-06-22T03:00:52;19.70;99.90
12885;DHT22;6510;51.362;7.370;2023-06-22T03:03:19;19.60;99.90
12885;DHT22;6510;51.362;7.370;2023-06-22T03:05:45;19.60;99.90
12885;DHT22;6510;51.362;7.370;2023-06-22T03:08:10;19.60;99.90
12885;DHT22;6510;51.362;7.370;2023-06-22T03:10:36;19.50;99.90
12885;DHT22;6510;51.362;7.370;2023-06-22T03:13:02;19.50;99.90
12885;DHT22;6510;51.362;7.370;2023-06-22T03:15:27;19.40;99.90
12885;DHT22;6510;51.362;7.370;2023-06-22T03:17:55;19.30;99.90
12885;DHT22;6510;51.362;7.370;2023-06-22T03:20:20;19.30;99.90
12885;DHT22;6510;51.362;7.370;2023-06-22T03:22:46;19.30;99.90
12885;DHT22;6510;51.362;7.370;2023-06-22T03:25:14;19.40;99.90
12885;DHT22;6510;51.362;7.370;2023-06-22T03:27:40;19.40;99.90
12885;DHT22;6510;51.362;7.370;2023-06-22T03:30:08;19.50;99.90
12885;DHT22;6510;51.362;7.370;2023-06-22T03:32:34;19.50;99.90
12885;DHT22;6510;51.362;7.370;2023-06-22T03:34:59;19.60;99.90
12885;DHT22;6510;51.362;7.370;2023-06-22T03:37:26;19.70;99.90
12885;DHT22;6510;51.362;7.370;2023-06-22T03:39:52;19.70;99.90
12885;DHT22;6510;51.362;7.370;2023-06-22T03:42:18;19.70;99.90
12885;DHT22;6510;51.362;7.370;2023-06-22T03:44:43;19.80;99.90
12885;DHT22;6510;51.362;7.370;2023-06-22T03:47:09;19.80;99.90
12885;DHT22;6510;51.362;7.370;2023-06-22T03:49:35;19.90;99.90
12885;DHT22;6510;51.362;7.370;2023-06-22T03:52:02;19.90;99.90
12885;DHT22;6510;51.362;7.370;2023-06-22T03:54:29;20.00;99.90
12885;DHT22;6510;51.362;7.370;2023-06-22T03:56:56;20.00;99.90
12885;DHT22;6510;51.362;7.370;2023-06-22T03:59:21;20.10;99.90
12885;DHT22;6510;51.362;7.370;2023-06-22T04:01:47;20.20;99.90
12885;DHT22;6510;51.362;7.370;2023-06-22T04:04:13;20.20;99.90
12885;DHT22;6510;51.362;7.370;2023-06-22T04:06:38;20.30;99.90
12885;DHT22;6510;51.362;7.370;2023-06-22T04:09:06;20.30;99.90
12885;DHT22;6510;51.362;7.370;2023-06-22T04:11:31;20.20;99.90
12885;DHT22;6510;51.362;7.370;2023-06-22T04:13:57;20.20;99.90
12885;DHT22;6510;51.362;7.370;2023-06-22T04:16:23;20.20;99.90
12885;DHT22;6510;51.362;7.370;2023-06-22T04:18:48;20.10;99.90
12885;DHT22;6510;51.362;7.370;2023-06-22T04:21:14;20.10;99.90
12885;DHT22;6510;51.362;7.370;2023-06-22T04:23:39;20.10;99.90
12885;DHT22;6510;51.362;7.370;2023-06-22T04:26:05;20.30;99.90
12885;DHT22;6510;51.362;7.370;2023-06-22T04:28:31;20.30;99.90
12885;DHT22;6510;51.362;7.370;2023-06-22T04:31:03;20.30;99.90
12885;DHT22;6510;51.362;7.370;2023-06-22T04:33:29;20.30;99.90
12885;DHT22;6510;51.362;7.370;2023-06-22T04:35:55;20.30;99.90
12885;DHT22;6510;51.362;7.370;2023-06-22T04:38:22;20.30;99.90
12885;DHT22;6510;51.362;7.370;2023-06-22T04:40:48;20.40;99.90
12885;DHT22;6510;51.362;7.370;2023-06-22T04:43:14;20.20;99.90
12885;DHT22;6510;51.362;7.370;2023-06-22T04:45:40;20.00;99.90
12885;DHT22;6510;51.362;7.370;2023-06-22T04:48:06;20.00;99.90
12885;DHT22;6510;51.362;7.370;2023-06-22T04:50:32;20.10;99.90
12885;DHT22;6510;51.362;7.370;2023-06-22T04:52:57;20.00;99.90
12885;DHT22;6510;51.362;7.370;2023-06-22T04:55:23;20.10;99.90
12885;DHT22;6510;51.362;7.370;2023-06-22T04:57:51;20.20;99.90
12885;DHT22;6510;51.362;7.370;2023-06-22T05:00:18;20.30;99.90
12885;DHT22;6510;51.362;7.370;2023-06-22T05:02:45;20.30;99.90
12885;DHT22;6510;51.362;7.370;2023-06-22T05:05:12;20.40;99.90
12885;DHT22;6510;51.362;7.370;2023-06-22T05:07:45;20.50;99.90
12885;DHT22;6510;51.362;7.370;2023-06-22T05:10:13;20.60;99.90
12885;DHT22;6510;51.362;7.370;2023-06-22T05:12:40;20.80;99.90
12885;DHT22;6510;51.362;7.370;2023-06-22T05:15:07;20.80;99.90
12885;DHT22;6510;51.362;7.370;2023-06-22T05:17:33;20.80;99.90
12885;DHT22;6510;51.362;7.370;2023-06-22T05:19:59;20.60;99.90
12885;DHT22;6510;51.362;7.370;2023-06-22T05:22:25;20.50;99.90
12885;DHT22;6510;51.362;7.370;2023-06-22T05:24:50;20.40;99.90
12885;DHT22;6510;51.362;7.370;2023-06-22T05:27:16;20.50;99.90
12885;DHT22;6510;51.362;7.370;2023-06-22T05:29:41;20.60;99.90
12885;DHT22;6510;51.362;7.370;2023-06-22T05:32:08;20.70;99.90
12885;DHT22;6510;51.362;7.370;2023-06-22T05:34:33;20.80;99.90
12885;DHT22;6510;51.362;7.370;2023-06-22T05:36:59;21.00;99.90
12885;DHT22;6510;51.362;7.370;2023-06-22T05:39:25;21.30;99.90
12885;DHT22;6510;51.362;7.370;2023-06-22T05:41:51;21.40;99.90
12885;DHT22;6510;51.362;7.370;2023-06-22T05:44:17;21.60;99.90
12885;DHT22;6510;51.362;7.370;2023-06-22T05:46:44;21.70;99.90
12885;DHT22;6510;51.362;7.370;2023-06-22T05:49:15;21.80;99.90
12885;DHT22;6510;51.362;7.370;2023-06-22T05:51:41;22.00;99.90
12885;DHT22;6510;51.362;7.370;2023-06-22T05:54:07;22.20;99.90
12885;DHT22;6510;51.362;7.370;2023-06-22T05:56:34;22.10;99.90
12885;DHT22;6510;51.362;7.370;2023-06-22T05:58:59;21.90;99.90
12885;DHT22;6510;51.362;7.370;2023-06-22T06:01:25;21.90;99.90
12885;DHT22;6510;51.362;7.370;2023-06-22T06:03:51;21.90;99.90
12885;DHT22;6510;51.362;7.370;2023-06-22T06:06:18;21.90;99.90
12885;DHT22;6510;51.362;7.370;2023-06-22T06:08:45;21.90;99.90
12885;DHT22;6510;51.362;7.370;2023-06-22T06:11:11;22.00;99.90
12885;DHT22;6510;51.362;7.370;2023-06-22T06:13:36;22.00;99.90
12885;DHT22;6510;51.362;7.370;2023-06-22T06:16:02;22.10;99.90
12885;DHT22;6510;51.362;7.370;2023-06-22T06:18:28;22.30;99.90
12885;DHT22;6510;51.362;7.370;2023-06-22T06:20:53;22.50;99.90
12885;DHT22;6510;51.362;7.370;2023-06-22T06:23:19;22.80;99.90
12885;DHT22;6510;51.362;7.370;2023-06-22T06:25:44;22.90;99.90
12885;DHT22;6510;51.362;7.370;2023-06-22T06:28:10;23.00;99.90
12885;DHT22;6510;51.362;7.370;2023-06-22T06:30:36;23.20;99.90
12885;DHT22;6510;51.362;7.370;2023-06-22T06:33:03;23.40;99.90
12885;DHT22;6510;51.362;7.370;2023-06-22T06:35:37;23.50;99.90
12885;DHT22;6510;51.362;7.370;2023-06-22T06:38:03;23.90;99.90
12885;DHT22;6510;51.362;7.370;2023-06-22T06:40:28;24.20;99.90
12885;DHT22;6510;51.362;7.370;2023-06-22T06:42:54;24.40;99.90
12885;DHT22;6510;51.362;7.370;2023-06-22T06:45:21;24.30;99.90
12885;DHT22;6510;51.362;7.370;2023-06-22T06:47:49;24.30;99.90
12885;DHT22;6510;51.362;7.370;2023-06-22T06:50:15;23.80;99.90
12885;DHT22;6510;51.362;7.370;2023-06-22T06:52:41;23.60;99.90
12885;DHT22;6510;51.362;7.370;2023-06-22T06:55:07;23.50;99.90
12885;DHT22;6510;51.362;7.370;2023-06-22T06:57:34;23.40;99.90
12885;DHT22;6510;51.362;7.370;2023-06-22T07:00:00;23.40;99.90
12885;DHT22;6510;51.362;7.370;2023-06-22T07:02:26;23.10;99.90
12885;DHT22;6510;51.362;7.370;2023-06-22T07:04:54;23.00;99.90
12885;DHT22;6510;51.362;7.370;2023-06-22T07:07:23;22.70;99.90
12885;DHT22;6510;51.362;7.370;2023-06-22T07:09:49;22.50;99.90
12885;DHT22;6510;51.362;7.370;2023-06-22T07:12:15;22.40;99.90
12885;DHT22;6510;51.362;7.370;2023-06-22T07:14:41;22.30;99.90
12885;DHT22;6510;51.362;7.370;2023-06-22T07:17:06;22.30;99.90
12885;DHT22;6510;51.362;7.370;2023-06-22T07:19:33;22.10;99.90
12885;DHT22;6510;51.362;7.370;2023-06-22T07:21:58;22.20;99.90
12885;DHT22;6510;51.362;7.370;2023-06-22T07:24:24;22.40;99.90
12885;DHT22;6510;51.362;7.370;2023-06-22T07:26:50;22.50;99.90
12885;DHT22;6510;51.362;7.370;2023-06-22T07:29:19;22.70;99.90
12885;DHT22;6510;51.362;7.370;2023-06-22T07:31:46;22.60;99.90
12885;DHT22;6510;51.362;7.370;2023-06-22T07:34:12;22.70;99.90
12885;DHT22;6510;51.362;7.370;2023-06-22T07:36:38;22.60;99.90
12885;DHT22;6510;51.362;7.370;2023-06-22T07:39:05;22.60;99.90
12885;DHT22;6510;51.362;7.370;2023-06-22T07:41:31;22.50;99.90
12885;DHT22;6510;51.362;7.370;2023-06-22T07:43:57;22.40;99.90
12885;DHT22;6510;51.362;7.370;2023-06-22T07:46:23;22.30;99.90
12885;DHT22;6510;51.362;7.370;2023-06-22T07:48:48;22.30;99.90
12885;DHT22;6510;51.362;7.370;2023-06-22T07:51:14;22.40;99.90
12885;DHT22;6510;51.362;7.370;2023-06-22T07:53:41;22.50;99.90
12885;DHT22;6510;51.362;7.370;2023-06-22T07:56:08;22.60;99.90
12885;DHT22;6510;51.362;7.370;2023-06-22T07:58:35;22.50;99.90
12885;DHT22;6510;51.362;7.370;2023-06-22T08:01:02;22.70;99.90
12885;DHT22;6510;51.362;7.370;2023-06-22T08:03:28;22.70;99.90
12885;DHT22;6510;51.362;7.370;2023-06-22T08:05:54;23.00;99.90
12885;DHT22;6510;51.362;7.370;2023-06-22T08:08:19;23.40;99.90
12885;DHT22;6510;51.362;7.370;2023-06-22T08:10:45;24.00;99.90
12885;DHT22;6510;51.362;7.370;2023-06-22T08:13:11;24.50;99.90
12885;DHT22;6510;51.362;7.370;2023-06-22T08:15:36;24.70;99.90
12885;DHT22;6510;51.362;7.370;2023-06-22T08:18:02;24.80;99.90
12885;DHT22;6510;51.362;7.370;2023-06-22T08:20:28;25.10;99.90
12885;DHT22;6510;51.362;7.370;2023-06-22T08:22:55;26.00;99.90
12885;DHT22;6510;51.362;7.370;2023-06-22T08:25:21;27.70;99.90
12885;DHT22;6510;51.362;7.370;2023-06-22T08:27:47;28.50;99.90
12885;DHT22;6510;51.362;7.370;2023-06-22T08:30:18;28.80;99.90
12885;DHT22;6510;51.362;7.370;2023-06-22T08:32:44;29.60;99.90
12885;DHT22;6510;51.362;7.370;2023-06-22T08:35:10;30.70;99.90
12885;DHT22;6510;51.362;7.370;2023-06-22T08:37:36;31.60;99.90
12885;DHT22;6510;51.362;7.370;2023-06-22T08:40:06;32.50;99.90
12885;DHT22;6510;51.362;7.370;2023-06-22T08:42:33;33.20;99.90
12885;DHT22;6510;51.362;7.370;2023-06-22T08:44:59;33.80;99.90
12885;DHT22;6510;51.362;7.370;2023-06-22T08:47:26;34.60;99.20
12885;DHT22;6510;51.362;7.370;2023-06-22T08:49:52;35.40;97.00
12885;DHT22;6510;51.362;7.370;2023-06-22T08:52:18;35.60;96.70
12885;DHT22;6510;51.362;7.370;2023-06-22T08:54:45;35.60;95.80
12885;DHT22;6510;51.362;7.370;2023-06-22T08:57:11;34.20;96.60
12885;DHT22;6510;51.362;7.370;2023-06-22T08:59:37;34.00;98.10
12885;DHT22;6510;51.362;7.370;2023-06-22T09:02:02;33.60;97.30
12885;DHT22;6510;51.362;7.370;2023-06-22T09:04:31;33.00;99.90
12885;DHT22;6510;51.362;7.370;2023-06-22T09:07:00;33.90;97.90
12885;DHT22;6510;51.362;7.370;2023-06-22T09:09:26;34.70;95.70
12885;DHT22;6510;51.362;7.370;2023-06-22T09:11:52;35.40;95.80
12885;DHT22;6510;51.362;7.370;2023-06-22T09:14:18;36.40;94.70
12885;DHT22;6510;51.362;7.370;2023-06-22T09:16:44;36.30;93.10
12885;DHT22;6510;51.362;7.370;2023-06-22T09:19:09;37.10;93.30
12885;DHT22;6510;51.362;7.370;2023-06-22T09:21:35;37.40;91.90
12885;DHT22;6510;51.362;7.370;2023-06-22T09:24:01;37.80;92.40
12885;DHT22;6510;51.362;7.370;2023-06-22T09:26:27;37.70;91.50
12885;DHT22;6510;51.362;7.370;2023-06-22T09:28:53;37.40;92.20
12885;DHT22;6510;51.362;7.370;2023-06-22T09:31:18;37.20;93.30
12885;DHT22;6510;51.362;7.370;2023-06-22T09:33:53;37.70;91.30
12885;DHT22;6510;51.362;7.370;2023-06-22T09:36:23;37.50;91.60
12885;DHT22;6510;51.362;7.370;2023-06-22T09:38:48;37.10;92.30
12885;DHT22;6510;51.362;7.370;2023-06-22T09:41:14;37.50;92.70
12885;DHT22;6510;51.362;7.370;2023-06-22T09:43:41;37.10;91.50
12885;DHT22;6510;51.362;7.370;2023-06-22T09:46:07;35.30;93.30
12885;DHT22;6510;51.362;7.370;2023-06-22T09:48:32;33.30;96.80
12885;DHT22;6510;51.362;7.370;2023-06-22T09:50:58;32.80;98.40
12885;DHT22;6510;51.362;7.370;2023-06-22T09:53:23;32.60;99.60
12885;DHT22;6510;51.362;7.370;2023-06-22T09:55:49;33.90;98.10
12885;DHT22;6510;51.362;7.370;2023-06-22T09:58:15;35.20;95.80
12885;DHT22;6510;51.362;7.370;2023-06-22T10:00:40;35.80;94.80
12885;DHT22;6510;51.362;7.370;2023-06-22T10:03:07;36.20;93.30
12885;DHT22;6510;51.362;7.370;2023-06-22T10:05:33;34.80;93.80
12885;DHT22;6510;51.362;7.370;2023-06-22T10:07:58;34.70;94.70
12885;DHT22;6510;51.362;7.370;2023-06-22T10:10:24;34.50;95.70
12885;DHT22;6510;51.362;7.370;2023-06-22T10:12:57;33.90;95.30
12885;DHT22;6510;51.362;7.370;2023-06-22T10:15:23;33.00;98.90
12885;DHT22;6510;51.362;7.370;2023-06-22T10:17:49;33.00;98.00
12885;DHT22;6510;51.362;7.370;2023-06-22T10:20:15;33.40;97.70
12885;DHT22;6510;51.362;7.370;2023-06-22T10:22:44;34.40;97.20
12885;DHT22;6510;51.362;7.370;2023-06-22T10:25:12;36.00;95.00
12885;DHT22;6510;51.362;7.370;2023-06-22T10:27:38;36.30;93.90
12885;DHT22;6510;51.362;7.370;2023-06-22T10:30:10;35.20;94.50
12885;DHT22;6510;51.362;7.370;2023-06-22T10:32:38;34.10;96.00
12885;DHT22;6510;51.362;7.370;2023-06-22T10:35:04;33.30;98.00
12885;DHT22;6510;51.362;7.370;2023-06-22T10:37:30;32.30;99.10
12885;DHT22;6510;51.362;7.370;2023-06-22T10:39:56;31.20;99.90
12885;DHT22;6510;51.362;7.370;2023-06-22T10:42:21;30.90;99.90
12885;DHT22;6510;51.362;7.370;2023-06-22T10:44:47;30.60;99.90
12885;DHT22;6510;51.362;7.370;2023-06-22T10:47:13;30.40;99.90
12885;DHT22;6510;51.362;7.370;2023-06-22T10:49:39;29.80;99.90
12885;DHT22;6510;51.362;7.370;2023-06-22T10:52:06;29.00;99.90
12885;DHT22;6510;51.362;7.370;2023-06-22T10:54:33;28.60;99.90
12885;DHT22;6510;51.362;7.370;2023-06-22T10:56:59;28.10;99.90
12885;DHT22;6510;51.362;7.370;2023-06-22T10:59:25;27.40;99.90
12885;DHT22;6510;51.362;7.370;2023-06-22T11:01:51;27.00;99.90
12885;DHT22;6510;51.362;7.370;2023-06-22T11:04:17;26.60;99.90
12885;DHT22;6510;51.362;7.370;2023-06-22T11:06:43;26.40;99.90
12885;DHT22;6510;51.362;7.370;2023-06-22T11:09:09;26.00;99.90
12885;DHT22;6510;51.362;7.370;2023-06-22T11:11:34;25.80;99.90
12885;DHT22;6510;51.362;7.370;2023-06-22T11:14:00;25.60;99.90
12885;DHT22;6510;51.362;7.370;2023-06-22T11:16:26;25.30;99.90
12885;DHT22;6510;51.362;7.370;2023-06-22T11:18:52;24.70;99.90
12885;DHT22;6510;51.362;7.370;2023-06-22T11:21:18;24.20;99.90
12885;DHT22;6510;51.362;7.370;2023-06-22T11:23:43;23.80;99.90
12885;DHT22;6510;51.362;7.370;2023-06-22T11:26:09;23.60;99.90
12885;DHT22;6510;51.362;7.370;2023-06-22T11:28:34;23.50;99.90
12885;DHT22;6510;51.362;7.370;2023-06-22T11:31:00;23.40;99.90
12885;DHT22;6510;51.362;7.370;2023-06-22T11:33:26;23.30;99.90
12885;DHT22;6510;51.362;7.370;2023-06-22T11:35:51;23.20;99.90
12885;DHT22;6510;51.362;7.370;2023-06-22T11:38:17;23.10;99.90
12885;DHT22;6510;51.362;7.370;2023-06-22T11:40:42;23.00;99.90
12885;DHT22;6510;51.362;7.370;2023-06-22T11:43:08;22.90;99.90
12885;DHT22;6510;51.362;7.370;2023-06-22T11:45:34;22.80;99.90
12885;DHT22;6510;51.362;7.370;2023-06-22T11:47:59;22.70;99.90
12885;DHT22;6510;51.362;7.370;2023-06-22T11:50:25;22.60;99.90
12885;DHT22;6510;51.362;7.370;2023-06-22T11:52:50;22.60;99.90
12885;DHT22;6510;51.362;7.370;2023-06-22T11:55:18;22.50;99.90
12885;DHT22;6510;51.362;7.370;2023-06-22T11:57:57;22.50;99.90
12885;DHT22;6510;51.362;7.370;2023-06-22T12:00:29;22.40;99.90
12885;DHT22;6510;51.362;7.370;2023-06-22T12:02:55;22.30;99.90
12885;DHT22;6510;51.362;7.370;2023-06-22T12:05:21;22.30;99.90
12885;DHT22;6510;51.362;7.370;2023-06-22T12:07:48;22.20;99.90
12885;DHT22;6510;51.362;7.370;2023-06-22T12:10:14;22.10;99.90
12885;DHT22;6510;51.362;7.370;2023-06-22T12:12:40;22.00;99.90
12885;DHT22;6510;51.362;7.370;2023-06-22T12:15:06;22.00;99.90
12885;DHT22;6510;51.362;7.370;2023-06-22T12:17:33;22.00;99.90
12885;DHT22;6510;51.362;7.370;2023-06-22T12:19:59;21.90;99.90
12885;DHT22;6510;51.362;7.370;2023-06-22T12:22:24;21.90;99.90
12885;DHT22;6510;51.362;7.370;2023-06-22T12:24:50;22.00;99.90
12885;DHT22;6510;51.362;7.370;2023-06-22T12:27:17;22.00;99.90
12885;DHT22;6510;51.362;7.370;2023-06-22T12:29:46;22.10;99.90
12885;DHT22;6510;51.362;7.370;2023-06-22T12:32:11;22.20;99.90
12885;DHT22;6510;51.362;7.370;2023-06-22T12:34:42;22.20;99.90
12885;DHT22;6510;51.362;7.370;2023-06-22T12:37:08;22.30;99.90
12885;DHT22;6510;51.362;7.370;2023-06-22T12:39:34;22.20;99.90
12885;DHT22;6510;51.362;7.370;2023-06-22T12:42:00;22.00;99.90
12885;DHT22;6510;51.362;7.370;2023-06-22T12:44:25;22.10;99.90
12885;DHT22;6510;51.362;7.370;2023-06-22T12:46:51;22.20;99.90
12885;DHT22;6510;51.362;7.370;2023-06-22T12:49:17;22.50;99.90
12885;DHT22;6510;51.362;7.370;2023-06-22T12:51:43;23.00;99.90
12885;DHT22;6510;51.362;7.370;2023-06-22T12:54:09;24.00;99.90
12885;DHT22;6510;51.362;7.370;2023-06-22T12:56:35;24.50;99.90
12885;DHT22;6510;51.362;7.370;2023-06-22T12:59:01;24.60;99.90
12885;DHT22;6510;51.362;7.370;2023-06-22T13:01:36;24.20;99.90
12885;DHT22;6510;51.362;7.370;2023-06-22T13:04:03;23.50;99.90
12885;DHT22;6510;51.362;7.370;2023-06-22T13:06:28;22.90;99.90
12885;DHT22;6510;51.362;7.370;2023-06-22T13:08:54;22.80;99.90
12885;DHT22;6510;51.362;7.370;2023-06-22T13:11:20;22.80;99.90
12885;DHT22;6510;51.362;7.370;2023-06-22T13:13:46;23.00;99.90
12885;DHT22;6510;51.362;7.370;2023-06-22T13:16:11;23.30;99.90
12885;DHT22;6510;51.362;7.370;2023-06-22T13:18:40;23.50;99.90
12885;DHT22;6510;51.362;7.370;2023-06-22T13:21:05;23.50;99.90
12885;DHT22;6510;51.362;7.370;2023-06-22T13:23:31;23.40;99.90
12885;DHT22;6510;51.362;7.370;2023-06-22T13:25:57;23.30;99.90
12885;DHT22;6510;51.362;7.370;2023-06-22T13:28:23;23.60;99.90
12885;DHT22;6510;51.362;7.370;2023-06-22T13:30:49;24.10;99.90
12885;DHT22;6510;51.362;7.370;2023-06-22T13:33:14;24.40;99.90
12885;DHT22;6510;51.362;7.370;2023-06-22T13:35:40;25.20;99.90
12885;DHT22;6510;51.362;7.370;2023-06-22T13:38:11;26.20;99.90
12885;DHT22;6510;51.362;7.370;2023-06-22T13:40:37;26.90;99.90
12885;DHT22;6510;51.362;7.370;2023-06-22T13:43:04;27.10;99.90
12885;DHT22;6510;51.362;7.370;2023-06-22T13:45:30;26.30;99.90
12885;DHT22;6510;51.362;7.370;2023-06-22T13:47:55;25.80;99.90
12885;DHT22;6510;51.362;7.370;2023-06-22T13:50:21;25.30;99.90
12885;DHT22;6510;51.362;7.370;2023-06-22T13:52:46;24.70;99.90
12885;DHT22;6510;51.362;7.370;2023-06-22T13:55:12;24.70;99.90
12885;DHT22;6510;51.362;7.370;2023-06-22T13:57:40;25.50;99.90
12885;DHT22;6510;51.362;7.370;2023-06-22T14:00:06;26.40;99.90
12885;DHT22;6510;51.362;7.370;2023-06-22T14:02:33;26.50;99.90
12885;DHT22;6510;51.362;7.370;2023-06-22T14:04:59;26.50;99.90
12885;DHT22;6510;51.362;7.370;2023-06-22T14:07:25;26.50;99.90
12885;DHT22;6510;51.362;7.370;2023-06-22T14:09:51;26.30;99.90
12885;DHT22;6510;51.362;7.370;2023-06-22T14:12:16;26.30;99.90
12885;DHT22;6510;51.362;7.370;2023-06-22T14:14:43;26.70;99.90
12885;DHT22;6510;51.362;7.370;2023-06-22T14:17:09;26.60;99.90
12885;DHT22;6510;51.362;7.370;2023-06-22T14:19:35;26.30;99.90
12885;DHT22;6510;51.362;7.370;2023-06-22T14:22:01;26.00;99.90
12885;DHT22;6510;51.362;7.370;2023-06-22T14:24:27;26.10;99.90
12885;DHT22;6510;51.362;7.370;2023-06-22T14:26:54;26.30;99.90
12885;DHT22;6510;51.362;7.370;2023-06-22T14:29:20;26.10;99.90
12885;DHT22;6510;51.362;7.370;2023-06-22T14:31:46;26.30;99.90
12885;DHT22;6510;51.362;7.370;2023-06-22T14:34:12;26.20;99.90
12885;DHT22;6510;51.362;7.370;2023-06-22T14:36:40;25.90;99.90
12885;DHT22;6510;51.362;7.370;2023-06-22T14:39:06;26.20;99.90
12885;DHT22;6510;51.362;7.370;2023-06-22T14:41:31;25.80;99.90
12885;DHT22;6510;51.362;7.370;2023-06-22T14:43:57;25.70;99.90
12885;DHT22;6510;51.362;7.370;2023-06-22T14:46:23;25.70;99.90
12885;DHT22;6510;51.362;7.370;2023-06-22T14:48:48;25.60;99.90
12885;DHT22;6510;51.362;7.370;2023-06-22T14:51:15;25.50;99.90
12885;DHT22;6510;51.362;7.370;2023-06-22T14:53:43;25.90;99.90
12885;DHT22;6510;51.362;7.370;2023-06-22T14:56:09;26.30;99.90
12885;DHT22;6510;51.362;7.370;2023-06-22T14:58:35;26.30;99.90
12885;DHT22;6510;51.362;7.370;2023-06-22T15:01:03;26.00;99.90
12885;DHT22;6510;51.362;7.370;2023-06-22T15:03:34;26.30;99.90
12885;DHT22;6510;51.362;7.370;2023-06-22T15:06:01;26.90;99.90
12885;DHT22;6510;51.362;7.370;2023-06-22T15:08:28;27.00;99.90
12885;DHT22;6510;51.362;7.370;2023-06-22T15:10:54;26.80;99.90
12885;DHT22;6510;51.362;7.370;2023-06-22T15:13:20;25.90;99.90
12885;DHT22;6510;51.362;7.370;2023-06-22T15:15:47;25.40;99.90
12885;DHT22;6510;51.362;7.370;2023-06-22T15:18:16;24.90;99.90
12885;DHT22;6510;51.362;7.370;2023-06-22T15:20:42;24.20;99.90
12885;DHT22;6510;51.362;7.370;2023-06-22T15:23:13;23.70;99.90
12885;DHT22;6510;51.362;7.370;2023-06-22T15:25:39;23.30;99.90
12885;DHT22;6510;51.362;7.370;2023-06-22T15:28:05;23.00;99.90
12885;DHT22;6510;51.362;7.370;2023-06-22T15:30:31;22.90;99.90
12885;DHT22;6510;51.362;7.370;2023-06-22T15:32:57;22.80;99.90
12885;DHT22;6510;51.362;7.370;2023-06-22T15:35:23;22.60;99.90
12885;DHT22;6510;51.362;7.370;2023-06-22T15:37:49;22.50;99.90
12885;DHT22;6510;51.362;7.370;2023-06-22T15:40:16;22.40;99.90
12885;DHT22;6510;51.362;7.370;2023-06-22T15:42:42;22.10;99.90
12885;DHT22;6510;51.362;7.370;2023-06-22T15:45:09;21.60;99.90
12885;DHT22;6510;51.362;7.370;2023-06-22T15:47:34;21.40;99.90
12885;DHT22;6510;51.362;7.370;2023-06-22T15:50:00;21.20;99.90